createdAt,value
2022-11-10T00:00:42.331Z,12.10
2022-11-10T00:03:12.075Z,12.40
2022-11-10T00:05:40.559Z,12.67
2022-11-10T00:08:13.035Z,10.57
2022-11-10T00:10:56.048Z,13.30
2022-11-10T00:13:25.999Z,16.07
2022-11-10T00:16:12.556Z,10.10
2022-11-10T00:18:41.638Z,8.07
2022-11-10T00:21:12.015Z,11.83
2022-11-10T00:23:41.826Z,15.23
2022-11-10T00:26:16.306Z,19.00
2022-11-10T00:28:45.260Z,11.90
2022-11-10T00:31:14.502Z,13.93
2022-11-10T00:33:44.675Z,13.83
2022-11-10T00:36:13.162Z,14.47
2022-11-10T00:38:42.682Z,14.03
2022-11-10T00:41:10.862Z,16.23
2022-11-10T00:43:39.019Z,18.20
2022-11-10T00:46:07.444Z,14.20
2022-11-10T00:48:35.578Z,15.63
2022-11-10T00:51:03.817Z,15.93
2022-11-10T00:53:32.169Z,15.33
2022-11-10T00:56:01.644Z,19.60
2022-11-10T00:58:29.870Z,13.17
2022-11-10T01:01:03.235Z,16.73
2022-11-10T01:03:31.654Z,16.93
2022-11-10T01:06:00.185Z,16.60
2022-11-10T01:08:28.321Z,15.80
2022-11-10T01:11:04.700Z,18.23
2022-11-10T01:13:33.507Z,18.87
2022-11-10T01:16:05.643Z,14.77
2022-11-10T01:18:34.226Z,14.87
2022-11-10T01:21:03.335Z,22.37
2022-11-10T01:23:31.757Z,19.43
2022-11-10T01:26:00.624Z,18.63
2022-11-10T01:28:30.885Z,18.60
2022-11-10T01:31:00.016Z,14.00
2022-11-10T01:33:28.904Z,22.53
2022-11-10T01:35:57.323Z,15.10
2022-11-10T01:38:28.307Z,21.40
2022-11-10T01:40:57.141Z,21.63
2022-11-10T01:43:26.540Z,23.50
2022-11-10T01:45:58.895Z,22.07
2022-11-10T01:48:34.014Z,20.33
2022-11-10T01:51:15.613Z,17.23
2022-11-10T01:53:50.169Z,20.50
2022-11-10T01:56:19.816Z,14.73
2022-11-10T01:58:54.129Z,19.23
2022-11-10T02:01:24.555Z,19.93
2022-11-10T02:03:55.417Z,21.50
2022-11-10T02:06:27.257Z,22.83
2022-11-10T02:08:58.429Z,20.97
2022-11-10T02:11:27.837Z,21.50
2022-11-10T02:13:56.736Z,23.20
2022-11-10T02:16:26.352Z,21.13
2022-11-10T02:18:54.781Z,22.03
2022-11-10T02:21:24.426Z,25.40
2022-11-10T02:23:54.685Z,19.20
2022-11-10T02:26:28.512Z,20.03
2022-11-10T02:28:57.072Z,21.00
2022-11-10T02:31:25.308Z,25.10
2022-11-10T02:33:53.464Z,22.73
2022-11-10T02:36:23.066Z,25.87
2022-11-10T02:38:51.493Z,24.20
2022-11-10T02:41:19.725Z,26.70
2022-11-10T02:43:48.342Z,23.10
2022-11-10T02:46:16.601Z,23.10
2022-11-10T02:48:44.759Z,20.80
2022-11-10T02:51:14.982Z,21.37
2022-11-10T02:53:44.543Z,23.40
2022-11-10T02:56:13.050Z,22.87
2022-11-10T02:58:41.220Z,18.67
2022-11-10T03:01:09.452Z,19.37
2022-11-10T03:03:37.747Z,21.50
2022-11-10T03:06:06.442Z,18.07
2022-11-10T03:08:34.629Z,21.87
2022-11-10T03:11:04.201Z,23.57
2022-11-10T03:13:51.561Z,16.33
2022-11-10T03:16:21.790Z,16.27
2022-11-10T03:18:50.052Z,23.83
2022-11-10T03:21:18.194Z,18.07
2022-11-10T03:23:46.887Z,18.90
2022-11-10T03:26:16.450Z,15.43
2022-11-10T03:28:44.655Z,16.47
2022-11-10T03:31:12.862Z,22.20
2022-11-10T03:33:41.034Z,17.87
2022-11-10T03:36:09.704Z,15.50
2022-11-10T03:38:37.854Z,20.13
2022-11-10T03:41:22.822Z,22.17
2022-11-10T03:43:53.025Z,18.97
2022-11-10T03:46:21.466Z,19.30
2022-11-10T03:48:53.522Z,17.00
2022-11-10T03:51:22.974Z,25.80
2022-11-10T03:53:51.311Z,16.70
2022-11-10T03:56:19.539Z,20.57
2022-11-10T03:58:47.990Z,23.43
2022-11-10T04:01:17.600Z,18.93
2022-11-10T04:03:51.064Z,21.17
2022-11-10T04:06:37.967Z,22.33
2022-11-10T04:09:07.287Z,18.40
2022-11-10T04:11:55.488Z,21.57
2022-11-10T04:14:40.977Z,27.37
2022-11-10T04:17:13.172Z,23.97
2022-11-10T04:19:41.287Z,23.30
2022-11-10T04:22:29.374Z,24.10
2022-11-10T04:24:57.514Z,25.03
2022-11-10T04:27:25.970Z,20.27
2022-11-10T04:29:54.062Z,24.17
2022-11-10T04:32:23.619Z,24.47
2022-11-10T04:34:51.939Z,20.67
2022-11-10T04:37:20.027Z,25.47
2022-11-10T04:39:48.170Z,28.53
2022-11-10T04:42:16.384Z,24.50
2022-11-10T04:44:44.494Z,22.23
2022-11-10T04:47:12.605Z,21.73
2022-11-10T04:49:42.105Z,26.00
2022-11-10T04:52:10.222Z,25.13
2022-11-10T04:54:38.519Z,25.63
2022-11-10T04:57:06.692Z,23.00
2022-11-10T04:59:34.816Z,24.03
2022-11-10T05:02:02.964Z,23.77
2022-11-10T05:04:31.117Z,24.80
2022-11-10T05:07:01.634Z,25.13
2022-11-10T05:09:29.815Z,19.30
2022-11-10T05:11:58.056Z,25.73
2022-11-10T05:14:26.213Z,23.03
2022-11-10T05:16:54.404Z,29.60
2022-11-10T05:19:22.584Z,29.33
2022-11-10T05:21:50.764Z,30.03
2022-11-10T05:24:20.254Z,26.63
2022-11-10T05:26:48.886Z,26.93
2022-11-10T05:29:17.069Z,28.10
2022-11-10T05:31:50.492Z,24.03
2022-11-10T05:34:19.635Z,27.47
2022-11-10T05:36:47.944Z,28.67
2022-11-10T05:39:16.272Z,27.20
2022-11-10T05:41:46.027Z,29.03
2022-11-10T05:44:14.468Z,28.47
2022-11-10T05:46:42.770Z,19.83
2022-11-10T05:49:10.964Z,23.97
2022-11-10T05:51:39.103Z,27.87
2022-11-10T05:54:07.256Z,27.87
2022-11-10T05:56:35.514Z,26.27
2022-11-10T05:59:05.053Z,27.53
2022-11-10T06:01:33.259Z,25.13
2022-11-10T06:04:01.476Z,23.40
2022-11-10T06:06:29.809Z,24.50
2022-11-10T06:08:59.319Z,26.67
2022-11-10T06:11:27.590Z,30.40
2022-11-10T06:13:55.877Z,26.20
2022-11-10T06:16:25.405Z,29.20
2022-11-10T06:18:53.563Z,22.90
2022-11-10T06:21:22.668Z,23.00
2022-11-10T06:23:50.832Z,33.17
2022-11-10T06:26:20.229Z,33.80
2022-11-10T06:28:48.430Z,24.57
2022-11-10T06:31:16.725Z,29.47
2022-11-10T06:33:46.321Z,24.23
2022-11-10T06:36:14.549Z,31.40
2022-11-10T06:38:42.750Z,22.07
2022-11-10T06:41:10.945Z,24.13
2022-11-10T06:43:39.542Z,29.57
2022-11-10T06:46:08.896Z,29.53
2022-11-10T06:48:37.083Z,32.50
2022-11-10T06:51:07.307Z,33.00
2022-11-10T06:53:35.466Z,32.20
2022-11-10T06:56:03.633Z,26.27
2022-11-10T06:58:31.848Z,27.40
2022-11-10T07:01:01.576Z,29.30
2022-11-10T07:03:32.851Z,33.27
2022-11-10T07:06:00.969Z,29.80
2022-11-10T07:08:31.064Z,31.90
2022-11-10T07:10:59.273Z,30.90
2022-11-10T07:13:27.401Z,24.97
2022-11-10T07:15:55.553Z,28.03
2022-11-10T07:18:24.679Z,20.57
2022-11-10T07:20:52.806Z,27.63
2022-11-10T07:23:21.226Z,21.07
2022-11-10T07:25:51.300Z,25.17
2022-11-10T07:28:20.722Z,30.23
2022-11-10T07:30:51.589Z,27.73
2022-11-10T07:33:22.863Z,28.47
2022-11-10T07:35:57.816Z,23.70
2022-11-10T07:38:26.309Z,32.17
2022-11-10T07:40:57.628Z,27.23
2022-11-10T07:43:26.683Z,27.93
2022-11-10T07:45:55.100Z,30.23
2022-11-10T07:48:24.505Z,23.03
2022-11-10T07:50:53.391Z,29.97
2022-11-10T07:53:22.509Z,28.60
2022-11-10T07:55:51.318Z,24.33
2022-11-10T07:58:20.807Z,26.87
2022-11-10T08:00:49.337Z,25.63
2022-11-10T08:03:20.339Z,25.90
2022-11-10T08:05:49.385Z,24.90
2022-11-10T08:08:17.850Z,26.20
2022-11-10T08:10:46.406Z,25.67
2022-11-10T08:13:15.552Z,23.83
2022-11-10T08:15:45.090Z,24.50
2022-11-10T08:18:19.020Z,23.83
2022-11-10T08:20:47.293Z,33.07
2022-11-10T08:23:15.792Z,28.27
2022-11-10T08:25:43.954Z,28.90
2022-11-10T08:28:14.684Z,30.70
2022-11-10T08:30:47.097Z,25.90
2022-11-10T08:33:19.814Z,28.50
2022-11-10T08:35:50.231Z,27.10
2022-11-10T08:38:21.076Z,25.13
2022-11-10T08:40:49.752Z,29.90
2022-11-10T08:43:19.199Z,23.57
2022-11-10T08:45:48.812Z,26.87
2022-11-10T08:48:19.475Z,29.23
2022-11-10T08:50:49.447Z,25.13
2022-11-10T08:53:20.546Z,29.37
2022-11-10T08:55:49.481Z,28.20
2022-11-10T08:58:20.226Z,28.33
2022-11-10T09:00:49.783Z,20.83
2022-11-10T09:03:21.116Z,27.17
2022-11-10T09:05:56.666Z,24.97
2022-11-10T09:08:26.613Z,25.03
2022-11-10T09:10:55.015Z,21.90
2022-11-10T09:13:29.095Z,25.43
2022-11-10T09:16:02.736Z,23.63
2022-11-10T09:18:31.533Z,22.33
2022-11-10T09:20:59.753Z,22.93
2022-11-10T09:23:28.195Z,24.40
2022-11-10T09:25:57.448Z,23.27
2022-11-10T09:28:26.709Z,23.37
2022-11-10T09:30:54.997Z,22.23
2022-11-10T09:33:24.874Z,23.70
2022-11-10T09:35:58.204Z,21.00
2022-11-10T09:38:26.434Z,25.63
2022-11-10T09:41:03.429Z,21.30
2022-11-10T09:43:39.476Z,27.50
2022-11-10T09:46:17.800Z,21.53
2022-11-10T09:48:52.203Z,21.77
2022-11-10T09:51:27.030Z,20.27
2022-11-10T09:53:58.918Z,21.90
2022-11-10T09:56:34.569Z,23.60
2022-11-10T09:59:07.918Z,20.47
2022-11-10T10:01:46.518Z,20.30
2022-11-10T10:04:51.732Z,22.80
2022-11-10T10:07:27.668Z,18.90
2022-11-10T10:10:03.848Z,21.03
2022-11-10T10:12:53.047Z,19.13
2022-11-10T10:15:31.835Z,19.80
2022-11-10T10:18:24.004Z,21.83
2022-11-10T10:21:18.171Z,19.57
2022-11-10T10:24:09.504Z,13.87
2022-11-10T10:26:44.924Z,14.70
2022-11-10T10:29:21.680Z,16.47
2022-11-10T10:31:52.205Z,13.33
2022-11-10T10:34:25.019Z,18.17
2022-11-10T10:36:55.140Z,24.07
2022-11-10T10:39:30.846Z,17.77
2022-11-10T10:41:59.554Z,18.23
2022-11-10T10:44:33.324Z,21.37
2022-11-10T10:47:09.035Z,22.50
2022-11-10T10:49:39.859Z,21.97
2022-11-10T10:52:15.842Z,27.47
2022-11-10T10:54:44.707Z,21.97
2022-11-10T10:57:24.080Z,23.87
2022-11-10T10:59:53.563Z,20.57
2022-11-10T11:02:27.924Z,19.80
2022-11-10T11:05:14.959Z,20.37
2022-11-10T11:07:57.498Z,23.87
2022-11-10T11:10:29.045Z,22.60
2022-11-10T11:13:16.024Z,22.83
2022-11-10T11:15:57.819Z,24.20
2022-11-10T11:18:29.166Z,20.30
2022-11-10T11:21:06.563Z,21.30
2022-11-10T11:23:50.014Z,17.13
2022-11-10T11:26:26.856Z,15.60
2022-11-10T11:29:14.346Z,15.23
2022-11-10T11:31:57.909Z,15.00
2022-11-10T11:34:35.141Z,14.10
2022-11-10T11:37:18.046Z,11.70
2022-11-10T11:40:04.193Z,12.83
2022-11-10T11:42:52.655Z,13.40
2022-11-10T11:45:28.787Z,11.93
2022-11-10T11:48:29.221Z,15.80
2022-11-10T11:51:02.482Z,13.30
2022-11-10T11:53:47.667Z,13.30
2022-11-10T11:56:26.159Z,13.50
2022-11-10T11:59:09.461Z,10.77
2022-11-10T12:01:58.018Z,10.83
2022-11-10T12:04:44.483Z,16.40
2022-11-10T12:07:42.995Z,12.97
2022-11-10T12:10:43.110Z,15.20
2022-11-10T12:13:27.288Z,13.40
2022-11-10T12:16:02.507Z,13.93
2022-11-10T12:18:34.435Z,10.37
2022-11-10T12:21:25.535Z,11.73
2022-11-10T12:24:22.034Z,11.83
2022-11-10T12:26:56.407Z,12.07
2022-11-10T12:29:32.741Z,12.53
2022-11-10T12:32:07.754Z,14.77
2022-11-10T12:34:42.754Z,11.67
2022-11-10T12:37:24.961Z,12.97
2022-11-10T12:40:04.613Z,17.27
2022-11-10T12:42:35.264Z,13.30
2022-11-10T12:45:09.032Z,15.03
2022-11-10T12:47:43.125Z,15.43
2022-11-10T12:50:37.854Z,15.33
2022-11-10T12:53:15.897Z,11.27
2022-11-10T12:55:47.425Z,9.67
2022-11-10T12:58:16.778Z,10.53
2022-11-10T13:00:58.242Z,11.33
2022-11-10T13:03:31.503Z,11.57
2022-11-10T13:06:02.303Z,12.90
2022-11-10T13:08:39.173Z,14.20
2022-11-10T13:11:23.506Z,10.67
2022-11-10T13:13:59.557Z,15.33
2022-11-10T13:16:52.034Z,14.40
2022-11-10T13:19:50.265Z,13.43
2022-11-10T13:22:37.748Z,12.00
2022-11-10T13:25:54.400Z,13.43
2022-11-10T13:29:02.505Z,13.73
2022-11-10T13:31:55.476Z,18.07
2022-11-10T13:34:35.112Z,9.93
2022-11-10T13:37:21.800Z,10.77
2022-11-10T13:39:50.461Z,14.13
2022-11-10T13:42:23.406Z,15.20
2022-11-10T13:44:53.907Z,13.57
2022-11-10T13:47:51.660Z,12.20
2022-11-10T13:50:34.158Z,15.13
2022-11-10T13:53:21.434Z,14.63
2022-11-10T13:56:06.386Z,12.37
2022-11-10T13:58:36.571Z,13.63
2022-11-10T14:01:30.501Z,9.70
2022-11-10T14:04:02.291Z,15.10
2022-11-10T14:06:43.554Z,13.13
2022-11-10T14:09:29.019Z,16.07
2022-11-10T14:12:04.454Z,9.03
2022-11-10T14:14:44.518Z,13.33
2022-11-10T14:17:20.789Z,10.43
2022-11-10T14:19:50.658Z,14.60
2022-11-10T14:22:26.052Z,17.27
2022-11-10T14:25:01.978Z,12.47
2022-11-10T14:27:34.673Z,12.53
2022-11-10T14:30:13.730Z,13.07
2022-11-10T14:32:42.075Z,13.00
2022-11-10T14:35:22.940Z,10.50
2022-11-10T14:37:51.457Z,12.13
2022-11-10T14:40:21.203Z,13.13
2022-11-10T14:42:49.668Z,12.17
2022-11-10T14:45:21.497Z,15.33
2022-11-10T14:47:56.319Z,12.13
2022-11-10T14:50:28.051Z,23.37
2022-11-10T14:53:01.816Z,13.27
2022-11-10T14:55:33.008Z,13.73
2022-11-10T14:58:06.443Z,14.53
2022-11-10T15:00:39.538Z,13.47
2022-11-10T15:03:10.169Z,14.10
2022-11-10T15:05:45.173Z,15.83
2022-11-10T15:08:16.507Z,10.27
2022-11-10T15:10:48.713Z,12.90
2022-11-10T15:13:35.089Z,11.27
2022-11-10T15:16:23.377Z,11.50
2022-11-10T15:18:51.655Z,11.40
2022-11-10T15:21:22.910Z,12.00
2022-11-10T15:23:56.970Z,12.07
2022-11-10T15:26:28.880Z,12.90
2022-11-10T15:28:57.131Z,10.23
2022-11-10T15:31:27.727Z,10.73
2022-11-10T15:33:58.636Z,11.17
2022-11-10T15:36:33.257Z,14.93
2022-11-10T15:39:20.043Z,12.70
2022-11-10T15:41:50.179Z,12.33
2022-11-10T15:44:21.806Z,10.73
2022-11-10T15:46:55.121Z,8.10
2022-11-10T15:49:27.743Z,11.27
2022-11-10T15:51:59.568Z,12.40
2022-11-10T15:54:31.569Z,10.43
2022-11-10T15:56:59.910Z,11.40
2022-11-10T15:59:28.149Z,10.33
2022-11-10T16:01:56.929Z,10.97
2022-11-10T16:04:28.203Z,13.53
2022-11-10T16:06:58.464Z,13.00
2022-11-10T16:09:26.669Z,9.57
2022-11-10T16:11:54.886Z,13.43
2022-11-10T16:14:23.127Z,11.93
2022-11-10T16:16:51.395Z,12.63
2022-11-10T16:19:19.876Z,14.13
2022-11-10T16:21:48.077Z,12.53
2022-11-10T16:24:17.654Z,12.57
2022-11-10T16:26:45.909Z,12.27
2022-11-10T16:29:16.532Z,11.80
2022-11-10T16:31:44.803Z,8.07
2022-11-10T16:34:15.110Z,11.87
2022-11-10T16:36:46.233Z,11.63
2022-11-10T16:39:18.001Z,10.93
2022-11-10T16:41:46.627Z,8.60
2022-11-10T16:44:16.751Z,12.73
2022-11-10T16:46:46.840Z,12.77
2022-11-10T16:49:27.263Z,10.77
2022-11-10T16:51:55.508Z,13.10
2022-11-10T16:54:25.011Z,9.80
2022-11-10T16:56:53.366Z,8.33
2022-11-10T16:59:21.540Z,12.13
2022-11-10T17:01:50.852Z,11.73
2022-11-10T17:04:19.413Z,12.00
2022-11-10T17:06:47.666Z,11.30
2022-11-10T17:09:20.112Z,9.03
2022-11-10T17:11:49.687Z,11.20
2022-11-10T17:14:18.268Z,14.43
2022-11-10T17:16:48.528Z,10.83
2022-11-10T17:19:21.676Z,12.03
2022-11-10T17:21:50.365Z,6.50
2022-11-10T17:24:18.913Z,13.23
2022-11-10T17:26:48.984Z,8.50
2022-11-10T17:29:20.982Z,11.07
2022-11-10T17:31:50.923Z,14.40
2022-11-10T17:34:19.149Z,12.30
2022-11-10T17:36:47.648Z,11.73
2022-11-10T17:39:16.789Z,9.80
2022-11-10T17:41:45.055Z,11.17
2022-11-10T17:44:16.909Z,11.13
2022-11-10T17:46:45.364Z,9.50
2022-11-10T17:49:13.536Z,11.57
2022-11-10T17:51:41.717Z,9.20
2022-11-10T17:54:15.091Z,13.87
2022-11-10T17:56:43.499Z,14.17
2022-11-10T17:59:11.666Z,10.23
2022-11-10T18:01:41.211Z,11.37
2022-11-10T18:04:13.838Z,12.23
2022-11-10T18:06:42.051Z,10.17
2022-11-10T18:09:11.495Z,9.70
2022-11-10T18:11:39.758Z,9.13
2022-11-10T18:14:08.068Z,12.60
2022-11-10T18:16:36.209Z,9.53
2022-11-10T18:19:06.351Z,7.03
2022-11-10T18:21:34.825Z,10.63
2022-11-10T18:24:03.210Z,10.40
2022-11-10T18:26:31.432Z,8.47
2022-11-10T18:29:01.527Z,7.00
2022-11-10T18:31:29.861Z,6.63
2022-11-10T18:33:58.259Z,9.83
2022-11-10T18:36:28.804Z,10.53
2022-11-10T18:38:56.945Z,10.33
2022-11-10T18:41:42.688Z,8.30
2022-11-10T18:44:10.856Z,7.13
2022-11-10T18:46:39.051Z,11.77
2022-11-10T18:49:07.546Z,9.17
2022-11-10T18:51:37.310Z,10.00
2022-11-10T18:54:06.186Z,8.20
2022-11-10T18:56:34.893Z,8.23
2022-11-10T18:59:03.384Z,7.37
2022-11-10T19:01:31.714Z,9.73
2022-11-10T19:04:00.284Z,10.07
2022-11-10T19:06:28.576Z,11.50
2022-11-10T19:08:58.471Z,6.40
2022-11-10T19:11:26.787Z,8.50
2022-11-10T19:13:54.968Z,12.13
2022-11-10T19:16:23.103Z,11.20
2022-11-10T19:18:51.317Z,9.47
2022-11-10T19:21:22.311Z,8.13
2022-11-10T19:23:55.458Z,8.30
2022-11-10T19:26:28.239Z,9.13
2022-11-10T19:28:57.384Z,10.07
2022-11-10T19:31:27.147Z,9.67
2022-11-10T19:33:58.228Z,8.60
2022-11-10T19:36:28.451Z,14.80
2022-11-10T19:38:57.792Z,9.60
2022-11-10T19:41:29.556Z,9.73
2022-11-10T19:44:01.016Z,9.97
2022-11-10T19:46:34.204Z,7.50
2022-11-10T19:49:02.339Z,6.07
2022-11-10T19:51:30.643Z,8.40
2022-11-10T19:54:01.489Z,9.83
2022-11-10T19:56:34.076Z,8.80
2022-11-10T19:59:02.416Z,8.70
2022-11-10T20:01:32.511Z,9.37
2022-11-10T20:04:01.657Z,11.57
2022-11-10T20:06:29.908Z,8.80
2022-11-10T20:08:58.113Z,7.00
2022-11-10T20:11:27.725Z,10.20
2022-11-10T20:14:00.367Z,10.33
2022-11-10T20:16:28.663Z,10.30
2022-11-10T20:18:57.051Z,8.23
2022-11-10T20:21:25.258Z,7.33
2022-11-10T20:23:54.635Z,8.90
2022-11-10T20:26:24.355Z,5.73
2022-11-10T20:28:52.640Z,9.27
2022-11-10T20:31:25.944Z,8.20
2022-11-10T20:33:56.340Z,8.10
2022-11-10T20:36:27.160Z,6.33
2022-11-10T20:38:59.165Z,7.03
2022-11-10T20:41:31.048Z,8.90
2022-11-10T20:43:59.297Z,8.80
2022-11-10T20:46:53.583Z,10.03
2022-11-10T20:49:19.546Z,7.27
2022-11-10T20:51:47.764Z,6.17
2022-11-10T20:54:17.410Z,7.57
2022-11-10T20:56:45.783Z,7.03
2022-11-10T20:59:14.395Z,8.13
2022-11-10T21:01:44.015Z,6.07
2022-11-10T21:04:12.383Z,7.70
2022-11-10T21:06:40.788Z,8.10
2022-11-10T21:09:09.330Z,8.20
2022-11-10T21:11:55.023Z,7.10
2022-11-10T21:14:23.305Z,7.93
2022-11-10T21:16:52.886Z,6.77
2022-11-10T21:19:21.081Z,8.00
2022-11-10T21:21:51.005Z,7.27
2022-11-10T21:24:19.222Z,6.00
2022-11-10T21:26:47.423Z,5.67
2022-11-10T21:29:15.600Z,9.43
2022-11-10T21:31:44.364Z,8.13
2022-11-10T21:34:14.108Z,10.43
2022-11-10T21:36:42.295Z,7.17
2022-11-10T21:39:10.793Z,6.87
2022-11-10T21:41:39.008Z,8.87
2022-11-10T21:44:07.241Z,7.07
2022-11-10T21:46:35.477Z,7.63
2022-11-10T21:49:07.616Z,8.73
2022-11-10T21:51:38.899Z,9.37
2022-11-10T21:54:07.348Z,10.67
2022-11-10T21:56:35.531Z,9.60
2022-11-10T21:59:03.733Z,9.73
2022-11-10T22:01:32.072Z,9.97
2022-11-10T22:04:00.338Z,8.50
2022-11-10T22:06:48.673Z,8.40
2022-11-10T22:09:38.271Z,11.67
2022-11-10T22:12:25.692Z,8.90
2022-11-10T22:15:11.428Z,10.70
2022-11-10T22:17:56.940Z,10.93
2022-11-10T22:20:25.146Z,11.13
2022-11-10T22:22:53.398Z,9.00
2022-11-10T22:25:22.980Z,9.27
2022-11-10T22:27:51.243Z,11.63
2022-11-10T22:30:19.503Z,8.23
2022-11-10T22:32:47.769Z,11.00
2022-11-10T22:35:36.186Z,10.63
2022-11-10T22:38:06.288Z,8.53
2022-11-10T22:40:54.869Z,11.50
2022-11-10T22:43:40.617Z,10.47
2022-11-10T22:46:08.826Z,9.87
2022-11-10T22:48:37.017Z,14.33
2022-11-10T22:51:05.289Z,10.00
2022-11-10T22:53:38.371Z,10.50
2022-11-10T22:56:08.891Z,12.13
2022-11-10T22:58:37.001Z,10.80
2022-11-10T23:01:06.917Z,8.07
2022-11-10T23:03:36.316Z,10.10
2022-11-10T23:06:05.307Z,9.77
2022-11-10T23:08:33.667Z,11.37
2022-11-10T23:11:04.020Z,12.87
2022-11-10T23:13:35.256Z,9.20
2022-11-10T23:16:05.458Z,15.57
2022-11-10T23:18:33.870Z,13.00
2022-11-10T23:21:05.488Z,11.20
2022-11-10T23:23:35.311Z,10.83
2022-11-10T23:26:06.396Z,12.63
2022-11-10T23:28:37.380Z,13.63
2022-11-10T23:31:07.607Z,10.83
2022-11-10T23:33:36.915Z,11.83
2022-11-10T23:36:05.692Z,13.20
2022-11-10T23:38:35.625Z,11.03
2022-11-10T23:41:05.838Z,15.37
2022-11-10T23:43:35.643Z,11.87
2022-11-10T23:46:07.840Z,12.83
2022-11-10T23:48:36.781Z,11.73
2022-11-10T23:51:06.838Z,13.63
2022-11-10T23:53:35.153Z,10.57
2022-11-10T23:56:06.037Z,15.33
2022-11-10T23:58:35.606Z,13.33
